CheckWX is a tool to help pilots better visualize weather data.  It is not intended as a substitute for an official pre-flight weather briefing.

02:37:11 UTC

KFET METAR
Fremont Municipal Airport
Fremont, Nebraska, USA
Current

22 mins ago

KFET 180215Z AUTO 31009KT 4SM -SN SCT018 SCT026 OVC038 M06/M08 A3013 RMK AO2 T10571076
Observed
Feb-18 @ 02:15 UTC
Wind
  • 310° at 9 KTS
Visibility
4 SM
Flight Rules
MVFR
Conditions
Light Snow
Cloud Levels
  • Scattered at 1,800' AGL
  • Scattered at 2,600' AGL
  • Overcast at 3,800' AGL
Temperature
-6°C / 21°F
Dewpoint
-8°C / 18°F
Humidity
86%
Altimeter
30.13" Hg
Pressure
1020.32 hPa
Previous

42 mins ago

KFET 180155Z AUTO 32009KT 5SM -SN SCT024 SCT031 OVC036 M06/M08 A3012 RMK AO2 T10561077
Observed
Feb-18 @ 01:55 UTC
Wind
  • 320° at 9 KTS
Visibility
5 SM
Flight Rules
MVFR
Conditions
Light Snow
Cloud Levels
  • Scattered at 2,400' AGL
  • Scattered at 3,100' AGL
  • Overcast at 3,600' AGL
Temperature
-6°C / 21°F
Dewpoint
-8°C / 18°F
Humidity
86%
Altimeter
30.12" Hg
Pressure
1020.02 hPa
Previous

1 hour ago

KFET 180135Z AUTO 30010KT 3SM -SN SCT015 BKN024 OVC029 M06/M08 A3011 RMK AO2 T10601077
Observed
Feb-18 @ 01:35 UTC
Wind
  • 300° at 10 KTS
Visibility
3 SM
Flight Rules
MVFR
Conditions
Light Snow
Cloud Levels
  • Scattered at 1,500' AGL
  • Broken at 2,400' AGL
  • Overcast at 2,900' AGL
Temperature
-6°C / 21°F
Dewpoint
-8°C / 18°F
Humidity
86%
Altimeter
30.11" Hg
Pressure
1019.62 hPa